createdAt,value
2022-10-15T00:00:49.654Z,12.85
2022-10-15T00:03:52.074Z,13.07
2022-10-15T00:06:54.507Z,13.80
2022-10-15T00:09:56.883Z,13.50
2022-10-15T00:12:59.349Z,13.23
2022-10-15T00:16:01.956Z,13.85
2022-10-15T00:19:04.429Z,13.67
2022-10-15T00:22:06.875Z,13.73
2022-10-15T00:25:09.932Z,13.93
2022-10-15T00:28:12.330Z,14.52
2022-10-15T00:31:17.185Z,14.13
2022-10-15T00:34:23.266Z,12.93
2022-10-15T00:37:25.726Z,14.00
2022-10-15T00:40:31.968Z,13.13
2022-10-15T00:43:48.658Z,13.02
2022-10-15T00:47:06.366Z,13.50
2022-10-15T00:50:25.803Z,14.07
2022-10-15T00:53:28.277Z,13.67
2022-10-15T00:56:32.946Z,14.35
2022-10-15T00:59:39.337Z,14.27
2022-10-15T01:02:43.895Z,13.73
2022-10-15T01:05:49.810Z,14.33
2022-10-15T01:08:52.742Z,14.40
2022-10-15T01:11:56.305Z,14.77
2022-10-15T01:15:05.270Z,14.02
2022-10-15T01:18:14.669Z,14.13
2022-10-15T01:21:49.878Z,14.33
2022-10-15T01:25:01.806Z,14.47
2022-10-15T01:28:23.996Z,14.63
2022-10-15T01:31:49.101Z,14.18
2022-10-15T01:34:59.327Z,15.43
2022-10-15T01:38:17.217Z,15.20
2022-10-15T01:41:49.682Z,15.37
2022-10-15T01:44:59.586Z,14.80
2022-10-15T01:48:23.906Z,15.38
2022-10-15T01:51:28.994Z,14.35
2022-10-15T01:54:34.299Z,14.87
2022-10-15T01:57:39.408Z,15.47
2022-10-15T02:00:44.244Z,15.15
2022-10-15T02:03:48.325Z,14.10
2022-10-15T02:06:58.173Z,13.38
2022-10-15T02:10:11.273Z,13.30
2022-10-15T02:13:30.681Z,12.33
2022-10-15T02:16:41.967Z,11.55
2022-10-15T02:19:52.299Z,11.90
2022-10-15T02:23:20.367Z,13.60
2022-10-15T02:26:26.375Z,12.43
2022-10-15T02:29:34.055Z,12.17
2022-10-15T02:32:39.818Z,12.65
2022-10-15T02:35:44.252Z,13.18
2022-10-15T02:38:48.122Z,13.60
2022-10-15T02:41:53.555Z,14.10
2022-10-15T02:44:55.974Z,14.03
2022-10-15T02:47:58.440Z,13.88
2022-10-15T02:51:00.802Z,13.52
2022-10-15T02:54:08.381Z,12.90
2022-10-15T02:57:10.857Z,14.40
2022-10-15T03:00:15.634Z,13.80
2022-10-15T03:03:18.037Z,14.20
2022-10-15T03:06:20.999Z,14.05
2022-10-15T03:09:23.988Z,13.13
2022-10-15T03:12:26.449Z,13.57
2022-10-15T03:15:29.799Z,12.77
2022-10-15T03:18:35.606Z,13.23
2022-10-15T03:21:40.656Z,13.18
2022-10-15T03:24:47.436Z,14.57
2022-10-15T03:27:56.149Z,15.17
2022-10-15T03:31:06.858Z,16.50
2022-10-15T03:34:09.607Z,16.45
2022-10-15T03:37:12.310Z,14.27
2022-10-15T03:40:14.988Z,14.32
2022-10-15T03:43:19.182Z,14.70
2022-10-15T03:46:22.139Z,14.87
2022-10-15T03:49:25.656Z,14.98
2022-10-15T03:52:28.444Z,15.02
2022-10-15T03:55:31.438Z,15.60
2022-10-15T03:58:34.205Z,14.43
2022-10-15T04:01:39.553Z,15.10
2022-10-15T04:04:42.816Z,15.63
2022-10-15T04:07:45.336Z,15.02
2022-10-15T04:10:53.439Z,14.73
2022-10-15T04:13:56.103Z,14.70
2022-10-15T04:16:59.133Z,14.40
2022-10-15T04:20:05.050Z,13.88
2022-10-15T04:23:07.417Z,13.82
2022-10-15T04:26:10.267Z,13.98
2022-10-15T04:29:12.836Z,14.03
2022-10-15T04:32:16.026Z,14.57
2022-10-15T04:35:20.470Z,14.70
2022-10-15T04:38:36.454Z,14.57
2022-10-15T04:41:39.479Z,13.25
2022-10-15T04:45:05.971Z,13.37
2022-10-15T04:48:08.569Z,13.73
2022-10-15T04:51:17.239Z,13.98
2022-10-15T04:54:38.790Z,13.75
2022-10-15T04:57:42.078Z,13.68
2022-10-15T05:00:44.697Z,12.70
2022-10-15T05:04:02.172Z,13.60
2022-10-15T05:07:05.596Z,13.55
2022-10-15T05:10:08.503Z,13.68
2022-10-15T05:13:11.024Z,13.05
2022-10-15T05:16:23.159Z,14.20
2022-10-15T05:19:26.081Z,14.23
2022-10-15T05:22:28.720Z,14.65
2022-10-15T05:25:34.669Z,14.77
2022-10-15T05:28:37.878Z,16.15
2022-10-15T05:31:40.736Z,15.77
2022-10-15T05:34:51.401Z,15.87
2022-10-15T05:37:54.367Z,15.95
2022-10-15T05:40:57.016Z,16.90
2022-10-15T05:44:00.482Z,16.02
2022-10-15T05:47:09.562Z,17.33
2022-10-15T05:50:12.338Z,16.27
2022-10-15T05:53:20.209Z,16.83
2022-10-15T05:56:26.417Z,16.40
2022-10-15T05:59:29.207Z,16.23
2022-10-15T06:02:31.942Z,16.27
2022-10-15T06:05:34.659Z,14.93
2022-10-15T06:08:37.446Z,14.15
2022-10-15T06:11:40.287Z,14.57
2022-10-15T06:14:45.431Z,15.50
2022-10-15T06:17:48.180Z,14.20
2022-10-15T06:20:53.900Z,14.43
2022-10-15T06:23:56.412Z,15.27
2022-10-15T06:27:00.054Z,15.40
2022-10-15T06:30:02.550Z,15.77
2022-10-15T06:33:05.220Z,15.87
2022-10-15T06:36:10.206Z,16.37
2022-10-15T06:39:12.776Z,16.35
2022-10-15T06:42:17.153Z,15.52
2022-10-15T06:45:23.316Z,17.00
2022-10-15T06:48:26.249Z,19.07
2022-10-15T06:51:28.869Z,18.90
2022-10-15T06:54:31.377Z,19.25
2022-10-15T06:57:34.052Z,20.00
2022-10-15T07:00:36.624Z,18.83
2022-10-15T07:03:41.867Z,19.77
2022-10-15T07:06:47.127Z,19.97
2022-10-15T07:09:55.263Z,20.52
2022-10-15T07:13:01.996Z,20.80
2022-10-15T07:16:09.821Z,21.88
2022-10-15T07:19:12.588Z,21.27
2022-10-15T07:22:16.342Z,21.07
2022-10-15T07:25:18.871Z,21.85
2022-10-15T07:28:21.618Z,22.13
2022-10-15T07:31:24.361Z,22.17
2022-10-15T07:34:26.907Z,22.63
2022-10-15T07:37:29.693Z,22.17
2022-10-15T07:40:33.157Z,22.08
2022-10-15T07:43:36.759Z,22.95
2022-10-15T07:46:39.224Z,23.00
2022-10-15T07:49:41.752Z,23.27
2022-10-15T07:52:44.279Z,22.20
2022-10-15T07:55:46.996Z,23.75
2022-10-15T07:58:51.923Z,22.40
2022-10-15T08:01:54.975Z,21.90
2022-10-15T08:04:57.668Z,21.97
2022-10-15T08:08:00.436Z,21.53
2022-10-15T08:11:09.874Z,20.75
2022-10-15T08:14:12.327Z,20.95
2022-10-15T08:17:14.784Z,20.75
2022-10-15T08:20:17.326Z,20.53
2022-10-15T08:23:19.827Z,20.63
2022-10-15T08:26:22.524Z,21.42
2022-10-15T08:29:25.039Z,20.42
2022-10-15T08:32:27.554Z,21.45
2022-10-15T08:35:35.227Z,20.93
2022-10-15T08:38:37.660Z,20.33
2022-10-15T08:41:45.348Z,20.05
2022-10-15T08:44:53.632Z,20.10
2022-10-15T08:48:06.216Z,19.55
2022-10-15T08:51:20.157Z,20.10
2022-10-15T08:54:22.908Z,19.63
2022-10-15T08:57:49.442Z,20.02
2022-10-15T09:00:59.844Z,20.73
2022-10-15T09:04:22.642Z,20.27
2022-10-15T09:07:43.426Z,19.97
2022-10-15T09:11:12.547Z,47.13
2022-10-15T09:14:20.018Z,62.78
2022-10-15T09:17:27.491Z,37.78
2022-10-15T09:20:37.039Z,24.80
2022-10-15T09:23:41.532Z,21.37
2022-10-15T09:26:56.108Z,20.80
2022-10-15T09:30:07.029Z,17.38
2022-10-15T09:33:27.326Z,17.02
2022-10-15T09:36:33.006Z,16.92
2022-10-15T09:40:01.508Z,15.97
2022-10-15T09:43:06.150Z,14.70
2022-10-15T09:46:10.717Z,14.60
2022-10-15T09:49:24.721Z,14.43
2022-10-15T09:52:32.466Z,14.68
2022-10-15T09:56:05.560Z,14.43
2022-10-15T09:59:16.555Z,12.17
2022-10-15T10:02:21.794Z,13.50
2022-10-15T10:05:30.611Z,12.65
2022-10-15T10:12:01.941Z,13.33
2022-10-15T10:15:28.859Z,12.60
2022-10-15T10:18:32.178Z,12.43
2022-10-15T10:21:39.322Z,12.77
2022-10-15T10:24:41.758Z,11.65
2022-10-15T10:27:46.808Z,10.53
2022-10-15T10:31:00.335Z,8.90
2022-10-15T10:34:03.802Z,8.82
2022-10-15T10:37:07.721Z,8.10
2022-10-15T10:40:36.472Z,8.27
2022-10-15T10:43:54.357Z,7.90
2022-10-15T10:47:14.014Z,7.77
2022-10-15T10:50:34.676Z,7.63
2022-10-15T10:54:04.741Z,7.50
2022-10-15T10:57:14.468Z,7.43
2022-10-15T11:00:42.796Z,7.30
2022-10-15T11:03:46.159Z,7.50
2022-10-15T11:06:56.133Z,7.75
2022-10-15T11:10:18.958Z,7.70
2022-10-15T11:13:39.883Z,6.63
2022-10-15T11:16:50.077Z,6.90
2022-10-15T11:23:51.590Z,7.03
2022-10-15T11:27:31.412Z,6.53
2022-10-15T11:30:33.960Z,7.10
2022-10-15T11:33:53.048Z,6.73
2022-10-15T11:37:21.452Z,7.30
2022-10-15T11:40:32.676Z,7.53
2022-10-15T11:43:41.045Z,7.10
2022-10-15T11:46:46.493Z,7.45
2022-10-15T11:50:02.774Z,7.77
2022-10-15T11:53:16.840Z,7.10
2022-10-15T11:56:38.859Z,7.28
2022-10-15T11:59:55.319Z,7.40
2022-10-15T12:03:05.389Z,7.30
2022-10-15T12:06:13.976Z,7.70
2022-10-15T12:09:25.253Z,7.40
2022-10-15T12:12:49.099Z,6.95
2022-10-15T12:16:12.639Z,7.05
2022-10-15T12:19:17.580Z,6.90
2022-10-15T12:22:39.696Z,7.40
2022-10-15T12:25:44.094Z,7.13
2022-10-15T12:28:48.845Z,7.35
2022-10-15T12:31:56.380Z,7.95
2022-10-15T12:35:05.989Z,8.23
2022-10-15T12:38:11.993Z,8.13
2022-10-15T12:41:14.727Z,8.00
2022-10-15T12:44:22.882Z,7.43
2022-10-15T12:48:22.578Z,6.95
2022-10-15T12:51:24.864Z,7.25
2022-10-15T12:54:44.862Z,6.90
2022-10-15T12:58:01.354Z,6.80
2022-10-15T13:01:47.021Z,6.90
2022-10-15T13:04:49.374Z,7.07
2022-10-15T13:07:53.055Z,7.28
2022-10-15T13:10:59.307Z,7.50
2022-10-15T13:14:23.704Z,6.43
2022-10-15T13:17:31.406Z,7.63
2022-10-15T13:20:37.972Z,6.53
2022-10-15T13:23:45.927Z,6.75
2022-10-15T13:26:48.963Z,7.77
2022-10-15T13:30:02.300Z,7.33
2022-10-15T13:33:04.989Z,8.10
2022-10-15T13:36:08.497Z,8.20
2022-10-15T13:39:30.889Z,8.45
2022-10-15T13:42:33.739Z,8.77
2022-10-15T13:45:37.355Z,8.27
2022-10-15T13:48:45.076Z,8.27
2022-10-15T13:51:50.376Z,7.65
2022-10-15T13:54:52.771Z,6.72
2022-10-15T13:58:01.921Z,6.90
2022-10-15T14:01:22.147Z,7.03
2022-10-15T14:04:24.541Z,7.32
2022-10-15T14:07:27.601Z,7.90
2022-10-15T14:10:31.762Z,8.43
2022-10-15T14:13:35.399Z,7.93
2022-10-15T14:16:47.387Z,8.20
2022-10-15T14:20:25.928Z,7.72
2022-10-15T14:23:25.770Z,8.60
2022-10-15T14:26:39.110Z,8.57
2022-10-15T14:29:50.481Z,8.97
2022-10-15T14:32:52.903Z,8.00
2022-10-15T14:36:21.797Z,9.10
2022-10-15T14:39:32.191Z,9.32
2022-10-15T14:42:37.857Z,10.00
2022-10-15T14:45:52.392Z,11.40
2022-10-15T14:48:54.928Z,12.13
2022-10-15T14:52:09.845Z,13.27
2022-10-15T14:55:27.127Z,12.13
2022-10-15T14:58:30.321Z,13.77
2022-10-15T15:01:35.371Z,13.10
2022-10-15T15:04:41.395Z,12.83
2022-10-15T15:07:44.097Z,16.45
2022-10-15T15:13:52.278Z,19.10
2022-10-15T15:16:55.036Z,24.80
2022-10-15T15:19:57.806Z,27.93
2022-10-15T15:23:00.201Z,28.08
2022-10-15T15:26:02.898Z,24.30
2022-10-15T15:29:14.536Z,19.13
2022-10-15T15:32:17.837Z,22.50
2022-10-15T15:35:51.092Z,26.03
2022-10-15T15:38:58.570Z,26.27
2022-10-15T15:42:00.992Z,24.13
2022-10-15T15:45:04.540Z,24.13
2022-10-15T15:48:08.638Z,24.20
2022-10-15T15:51:21.182Z,25.57
2022-10-15T15:54:23.590Z,27.83
2022-10-15T15:57:26.272Z,27.70
2022-10-15T16:00:29.124Z,26.80
2022-10-15T16:03:31.421Z,29.23
2022-10-15T16:06:33.800Z,39.80
2022-10-15T16:09:36.260Z,27.75
2022-10-15T16:12:39.880Z,25.58
2022-10-15T16:15:42.228Z,30.48
2022-10-15T16:18:44.705Z,44.50
2022-10-15T16:21:47.207Z,44.47
2022-10-15T16:24:49.628Z,44.67
2022-10-15T16:27:52.086Z,31.85
2022-10-15T16:30:54.441Z,24.60
2022-10-15T16:33:57.170Z,21.17
2022-10-15T16:36:59.669Z,20.57
2022-10-15T16:40:02.230Z,19.15
2022-10-15T16:43:04.675Z,20.17
2022-10-15T16:46:07.239Z,23.17
2022-10-15T16:49:09.820Z,40.77
2022-10-15T16:52:12.586Z,40.00
2022-10-15T16:55:16.668Z,20.13
2022-10-15T16:58:19.197Z,17.73
2022-10-15T17:01:24.337Z,18.20
2022-10-15T17:04:27.281Z,18.63
2022-10-15T17:07:29.651Z,18.10
2022-10-15T17:10:32.161Z,18.92
2022-10-15T17:13:34.622Z,20.60
2022-10-15T17:16:38.851Z,24.38
2022-10-15T17:19:41.236Z,21.10
2022-10-15T17:22:43.659Z,20.57
2022-10-15T17:25:46.042Z,20.48
2022-10-15T17:28:50.097Z,19.65
2022-10-15T17:31:52.614Z,22.23
2022-10-15T17:34:54.943Z,23.43
2022-10-15T17:38:00.348Z,22.47
2022-10-15T17:41:14.712Z,22.08
2022-10-15T17:44:17.134Z,21.42
2022-10-15T17:47:19.606Z,21.20
2022-10-15T17:50:22.066Z,20.03
2022-10-15T17:53:24.592Z,20.90
2022-10-15T17:56:32.822Z,22.33
2022-10-15T17:59:35.372Z,22.17
2022-10-15T18:02:37.847Z,20.92
2022-10-15T18:05:40.302Z,25.10
2022-10-15T18:08:43.323Z,25.50
2022-10-15T18:11:48.158Z,29.60
2022-10-15T18:14:50.625Z,27.50
2022-10-15T18:17:59.182Z,25.17
2022-10-15T18:21:03.375Z,25.90
2022-10-15T18:24:05.753Z,23.17
2022-10-15T18:27:08.071Z,22.20
2022-10-15T18:30:11.882Z,21.90
2022-10-15T18:33:14.223Z,18.45
2022-10-15T18:36:19.931Z,20.90
2022-10-15T18:39:22.316Z,22.03
2022-10-15T18:42:24.967Z,24.35
2022-10-15T18:45:27.540Z,36.67
2022-10-15T18:48:32.832Z,44.35
2022-10-15T18:51:35.429Z,44.63
2022-10-15T18:54:38.583Z,42.00
2022-10-15T18:57:41.049Z,27.30
2022-10-15T19:00:43.859Z,20.55
2022-10-15T19:03:49.814Z,17.73
2022-10-15T19:06:53.814Z,17.27
2022-10-15T19:09:56.483Z,17.30
2022-10-15T19:13:01.868Z,17.10
2022-10-15T19:16:07.140Z,18.20
2022-10-15T19:19:13.174Z,20.20
2022-10-15T19:22:16.096Z,21.67
2022-10-15T19:25:18.435Z,26.97
2022-10-15T19:28:22.281Z,33.45
2022-10-15T19:31:33.808Z,34.33
2022-10-15T19:34:36.499Z,32.67
2022-10-15T19:37:38.849Z,31.40
2022-10-15T19:40:44.707Z,27.93
2022-10-15T19:43:49.689Z,25.90
2022-10-15T19:46:52.285Z,25.15
2022-10-15T19:49:55.497Z,23.95
2022-10-15T19:52:57.888Z,23.57
2022-10-15T19:56:06.059Z,21.00
2022-10-15T19:59:10.151Z,21.38
2022-10-15T20:02:12.554Z,20.83
2022-10-15T20:05:16.183Z,22.00
2022-10-15T20:08:18.707Z,21.57
2022-10-15T20:11:21.326Z,21.03
2022-10-15T20:14:23.787Z,21.02
2022-10-15T20:17:27.076Z,21.65
2022-10-15T20:20:29.888Z,22.63
2022-10-15T20:23:32.336Z,22.57
2022-10-15T20:26:34.639Z,22.23
2022-10-15T20:29:37.019Z,22.67
2022-10-15T20:32:39.517Z,22.38
2022-10-15T20:35:42.412Z,22.55
2022-10-15T20:38:44.854Z,23.50
2022-10-15T20:41:48.216Z,23.60
2022-10-15T20:44:50.653Z,25.27
2022-10-15T20:47:53.411Z,23.73
2022-10-15T20:50:55.905Z,25.40
2022-10-15T20:53:59.529Z,26.57
2022-10-15T20:57:02.724Z,25.17
2022-10-15T21:00:07.841Z,24.67
2022-10-15T21:03:10.204Z,25.60
2022-10-15T21:06:12.637Z,24.73
2022-10-15T21:09:15.096Z,24.17
2022-10-15T21:12:18.574Z,26.37
2022-10-15T21:15:21.240Z,25.40
2022-10-15T21:18:25.774Z,23.58
2022-10-15T21:21:28.598Z,23.58
2022-10-15T21:24:30.994Z,23.40
2022-10-15T21:27:33.286Z,22.37
2022-10-15T21:30:41.067Z,23.48
2022-10-15T21:33:43.887Z,24.33
2022-10-15T21:36:46.326Z,24.52
2022-10-15T21:39:48.751Z,23.53
2022-10-15T21:42:51.040Z,23.43
2022-10-15T21:45:53.363Z,23.38
2022-10-15T21:48:55.693Z,26.08
2022-10-15T21:51:58.029Z,25.08
2022-10-15T21:55:00.352Z,24.43
2022-10-15T21:58:02.755Z,25.67
2022-10-15T22:01:15.813Z,25.75
2022-10-15T22:04:19.609Z,26.08
2022-10-15T22:07:22.317Z,27.10
2022-10-15T22:10:24.838Z,25.73
2022-10-15T22:13:27.279Z,26.53
2022-10-15T22:16:32.064Z,26.00
2022-10-15T22:19:34.493Z,24.20
2022-10-15T22:22:36.764Z,22.20
2022-10-15T22:25:39.077Z,23.23
2022-10-15T22:28:42.978Z,21.33
2022-10-15T22:31:45.385Z,22.38
2022-10-15T22:34:47.939Z,22.60
2022-10-15T22:37:50.313Z,22.70
2022-10-15T22:40:54.648Z,22.20
2022-10-15T22:43:57.464Z,21.03
2022-10-15T22:46:59.837Z,22.85
2022-10-15T22:53:09.417Z,21.58
2022-10-15T22:56:17.939Z,24.87
2022-10-15T22:59:20.915Z,23.57
2022-10-15T23:02:23.528Z,23.67
2022-10-15T23:05:26.070Z,24.33
2022-10-15T23:08:28.441Z,23.55
2022-10-15T23:11:33.648Z,23.50
2022-10-15T23:14:36.107Z,22.80
2022-10-15T23:17:38.479Z,22.40
2022-10-15T23:20:40.826Z,22.30
2022-10-15T23:23:45.042Z,20.60
2022-10-15T23:26:47.585Z,21.67
2022-10-15T23:29:56.894Z,20.77
2022-10-15T23:33:10.012Z,19.23
2022-10-15T23:36:12.552Z,21.60
2022-10-15T23:39:19.231Z,20.15
2022-10-15T23:42:21.589Z,21.33
2022-10-15T23:45:23.973Z,21.60
2022-10-15T23:48:28.654Z,20.63
2022-10-15T23:51:32.296Z,21.52
2022-10-15T23:54:34.653Z,21.77
2022-10-15T23:57:37.038Z,21.70
